Time;durP1;ratioP1;P1;durP2;ratioP2;P2;SDS_P1;SDS_P2;PMS_P1;PMS_P2;Temp;Humidity;BMP_temperature;BMP_pressure;BME280_temperature;BME280_humidity;BME280_pressure;Samples;Min_cycle;Max_cycle;Signal;HPM_P1;HPM_P2
2022/02/22 00:01:03;;;;;;;;;;;6.70;99.90;;;;;;5011454;28;19933;-83
2022/02/22 00:03:32;;;;;;;;;;;7.00;99.90;;;;;;5023347;28;19925;-82
2022/02/22 00:06:05;;;;;;;;;;;6.80;99.90;;;;;;4993521;28;19933;-86
2022/02/22 00:08:37;;;;;;;;;;;6.70;99.90;;;;;;5042150;28;19926;-83
2022/02/22 00:11:06;;;;;;;;;;;6.70;99.90;;;;;;5025592;28;19952;-83
2022/02/22 00:13:34;;;;;;;;;;;6.70;99.90;;;;;;5028778;28;19929;-83
2022/02/22 00:16:05;;;;;;;;;;;6.70;99.90;;;;;;5025150;28;19926;-83
2022/02/22 00:18:34;;;;;;;;;;;6.60;99.90;;;;;;5011419;28;19936;-80
2022/02/22 00:21:05;;;;;;;;;;;6.70;99.90;;;;;;5013174;28;20001;-84
2022/02/22 00:23:33;;;;;;;;;;;6.60;99.90;;;;;;5012401;28;19926;-84
2022/02/22 00:26:06;;;;;;;;;;;6.60;99.90;;;;;;4999425;28;19929;-83
2022/02/22 00:28:37;;;;;;;;;;;6.60;99.90;;;;;;5009329;28;19930;-82
2022/02/22 00:31:09;;;;;;;;;;;6.50;99.90;;;;;;5009434;28;19936;-81
2022/02/22 00:33:38;;;;;;;;;;;6.50;99.90;;;;;;5030802;28;19926;-81
2022/02/22 00:36:06;;;;;;;;;;;6.50;99.90;;;;;;5012807;28;19916;-82
2022/02/22 00:38:35;;;;;;;;;;;6.50;99.90;;;;;;5027620;28;19935;-83
2022/02/22 00:41:04;;;;;;;;;;;6.60;99.90;;;;;;5030957;28;19925;-87
2022/02/22 00:43:33;;;;;;;;;;;6.70;99.90;;;;;;5028213;28;19948;-86
2022/02/22 00:46:01;;;;;;;;;;;6.70;99.90;;;;;;5046785;28;19925;-83
2022/02/22 00:48:30;;;;;;;;;;;6.50;99.90;;;;;;5031316;28;19929;-84
2022/02/22 00:50:58;;;;;;;;;;;6.60;99.90;;;;;;5013780;28;19918;-83
2022/02/22 00:53:27;;;;;;;;;;;6.60;99.90;;;;;;5012644;28;19925;-84
2022/02/22 00:55:58;;;;;;;;;;;6.60;99.90;;;;;;5028332;28;20006;-84
2022/02/22 00:58:28;;;;;;;;;;;5.40;99.90;;;;;;5029691;28;19925;-83
2022/02/22 01:00:59;;;;;;;;;;;6.50;99.90;;;;;;5028510;28;19935;-83
2022/02/22 01:03:28;;;;;;;;;;;6.20;99.90;;;;;;5029458;28;20149;-83
2022/02/22 01:06:03;;;;;;;;;;;5.90;99.90;;;;;;5031079;28;19926;-86
2022/02/22 01:08:32;;;;;;;;;;;5.00;99.90;;;;;;5028072;28;19925;-82
2022/02/22 01:11:00;;;;;;;;;;;6.20;99.90;;;;;;5012548;28;19926;-84
2022/02/22 01:13:29;;;;;;;;;;;5.10;99.90;;;;;;5012541;28;19934;-83
2022/02/22 01:15:59;;;;;;;;;;;6.80;99.90;;;;;;5023270;28;19920;-83
2022/02/22 01:18:28;;;;;;;;;;;5.50;99.90;;;;;;5013702;28;19923;-84
2022/02/22 02:08:39;;;;;;;;;;;6.80;99.90;;;;;;4993004;28;19940;-81
2022/02/22 02:11:12;;;;;;;;;;;6.90;99.90;;;;;;4989738;28;20533;-82
2022/02/22 02:13:40;;;;;;;;;;;6.80;99.90;;;;;;4989809;28;20410;-84
2022/02/22 02:16:08;;;;;;;;;;;7.00;99.90;;;;;;5009041;28;19925;-85
2022/02/22 02:18:36;;;;;;;;;;;6.80;99.90;;;;;;5025392;28;19936;-83
2022/02/22 02:21:06;;;;;;;;;;;7.00;99.90;;;;;;5023244;28;19936;-81
2022/02/22 02:23:34;;;;;;;;;;;6.80;99.90;;;;;;4976713;28;19929;-81
2022/02/22 02:26:03;;;;;;;;;;;7.20;99.90;;;;;;5025589;28;19926;-83
2022/02/22 02:28:32;;;;;;;;;;;6.90;99.90;;;;;;4992650;28;19930;-82
2022/02/22 02:31:00;;;;;;;;;;;7.10;99.90;;;;;;5025910;28;20427;-82
2022/02/22 02:33:28;;;;;;;;;;;6.90;99.90;;;;;;5008803;28;19932;-85
2022/02/22 02:35:56;;;;;;;;;;;6.90;99.90;;;;;;5025881;28;19926;-85
2022/02/22 02:38:25;;;;;;;;;;;7.10;99.90;;;;;;5008692;28;19925;-81
2022/02/22 02:40:53;;;;;;;;;;;7.00;99.90;;;;;;5012576;28;19926;-81
2022/02/22 02:43:24;;;;;;;;;;;7.00;99.90;;;;;;5031541;28;19925;-81
2022/02/22 02:45:52;;;;;;;;;;;7.00;99.90;;;;;;5030946;28;20167;-82
2022/02/22 02:48:21;;;;;;;;;;;7.00;99.90;;;;;;5033444;28;19925;-83
2022/02/22 02:50:49;;;;;;;;;;;7.00;99.90;;;;;;5014570;28;19936;-81
2022/02/22 02:53:17;;;;;;;;;;;7.20;99.90;;;;;;5029026;28;19914;-81
2022/02/22 02:55:47;;;;;;;;;;;7.10;99.90;;;;;;5001420;28;19926;-82
2022/02/22 02:58:23;;;;;;;;;;;7.00;99.90;;;;;;5033801;28;20070;-80
2022/02/22 03:00:53;;;;;;;;;;;7.00;99.90;;;;;;5033650;28;19929;-82
2022/02/22 03:03:23;;;;;;;;;;;5.90;99.90;;;;;;5033162;28;19925;-82
2022/02/22 03:05:54;;;;;;;;;;;7.20;99.90;;;;;;5015201;28;19925;-88
2022/02/22 03:08:22;;;;;;;;;;;7.40;99.90;;;;;;5031577;28;19933;-88
2022/02/22 03:10:50;;;;;;;;;;;6.90;99.90;;;;;;5046885;28;19940;-81
2022/02/22 03:13:18;;;;;;;;;;;7.00;99.90;;;;;;5047613;28;19926;-82
2022/02/22 03:15:49;;;;;;;;;;;6.90;99.90;;;;;;5040077;28;19929;-81
2022/02/22 03:18:20;;;;;;;;;;;6.90;99.90;;;;;;5030853;28;19921;-83
2022/02/22 03:20:50;;;;;;;;;;;7.00;99.90;;;;;;5033211;28;19933;-84
2022/02/22 03:23:19;;;;;;;;;;;7.00;99.90;;;;;;5034162;28;19925;-83
2022/02/22 03:25:48;;;;;;;;;;;8.20;99.90;;;;;;5034116;28;19932;-85
2022/02/22 03:28:18;;;;;;;;;;;7.10;99.90;;;;;;5012464;28;19926;-86
2022/02/22 03:30:47;;;;;;;;;;;7.20;99.90;;;;;;5033760;28;19924;-82
2022/02/22 03:33:16;;;;;;;;;;;7.20;99.90;;;;;;4999573;28;19925;-83
2022/02/22 03:35:44;;;;;;;;;;;6.30;99.90;;;;;;5049134;28;19940;-84
2022/02/22 03:38:13;;;;;;;;;;;6.10;99.90;;;;;;5047838;28;20426;-81
2022/02/22 03:40:43;;;;;;;;;;;7.30;99.90;;;;;;5050416;28;20259;-82
2022/02/22 03:43:11;;;;;;;;;;;7.30;99.90;;;;;;5042301;28;19929;-81
2022/02/22 03:45:42;;;;;;;;;;;7.20;99.90;;;;;;5030951;28;19936;-80
2022/02/22 03:48:10;;;;;;;;;;;7.40;99.90;;;;;;5031830;28;19925;-81
2022/02/22 03:50:40;;;;;;;;;;;7.50;99.90;;;;;;5049300;28;19933;-80
2022/02/22 03:53:10;;;;;;;;;;;7.40;99.90;;;;;;5032889;28;19929;-81
2022/02/22 03:55:43;;;;;;;;;;;7.50;99.90;;;;;;5016359;28;19932;-82
2022/02/22 03:58:11;;;;;;;;;;;7.30;99.90;;;;;;5029092;28;19925;-82
2022/02/22 04:00:39;;;;;;;;;;;7.50;99.90;;;;;;5012556;28;19929;-80
2022/02/22 04:03:11;;;;;;;;;;;7.60;99.90;;;;;;4996230;28;19917;-81
2022/02/22 04:05:42;;;;;;;;;;;7.70;99.90;;;;;;5012877;28;19929;-81
2022/02/22 04:08:11;;;;;;;;;;;7.70;99.90;;;;;;5044358;28;19926;-80
2022/02/22 04:10:39;;;;;;;;;;;7.70;99.90;;;;;;5016784;28;19925;-85
2022/02/22 04:13:10;;;;;;;;;;;7.90;99.90;;;;;;5019477;28;19925;-85
2022/02/22 04:15:41;;;;;;;;;;;7.80;99.90;;;;;;5068181;28;19925;-83
2022/02/22 04:18:10;;;;;;;;;;;7.90;99.90;;;;;;5033948;28;19939;-83
2022/02/22 04:20:38;;;;;;;;;;;7.90;99.90;;;;;;5034528;28;19920;-84
2022/02/22 04:23:06;;;;;;;;;;;7.90;99.90;;;;;;5039584;28;19925;-82
2022/02/22 04:25:37;;;;;;;;;;;6.70;99.90;;;;;;5037757;28;19929;-82
2022/02/22 04:28:04;;;;;;;;;;;8.00;99.90;;;;;;5053223;28;19927;-83
2022/02/22 04:30:32;;;;;;;;;;;8.70;99.90;;;;;;5054318;28;19926;-82
2022/02/22 04:33:00;;;;;;;;;;;7.90;99.90;;;;;;5036742;28;19929;-84
2022/02/22 04:35:29;;;;;;;;;;;8.00;99.90;;;;;;5034344;28;20387;-81
2022/02/22 04:37:58;;;;;;;;;;;7.90;99.90;;;;;;5051524;28;20199;-83
2022/02/22 04:40:27;;;;;;;;;;;7.00;99.90;;;;;;5049378;28;19925;-83
2022/02/22 04:42:56;;;;;;;;;;;7.90;99.90;;;;;;5032718;28;19940;-82
2022/02/22 04:45:24;;;;;;;;;;;7.90;99.90;;;;;;5015984;28;19939;-85
2022/02/22 04:47:56;;;;;;;;;;;8.00;99.90;;;;;;5013611;28;19925;-88
2022/02/22 04:50:24;;;;;;;;;;;7.40;99.90;;;;;;5026240;28;19930;-83
2022/02/22 04:52:53;;;;;;;;;;;7.80;99.90;;;;;;5024359;28;19936;-85
2022/02/22 04:55:21;;;;;;;;;;;7.60;99.90;;;;;;5045639;28;19925;-83
2022/02/22 04:57:51;;;;;;;;;;;7.80;99.90;;;;;;5040347;28;19948;-81
2022/02/22 05:00:23;;;;;;;;;;;7.70;99.90;;;;;;5049364;28;19927;-81
2022/02/22 05:02:51;;;;;;;;;;;7.70;99.90;;;;;;5048388;28;19939;-82
2022/02/22 05:05:19;;;;;;;;;;;7.70;99.90;;;;;;5048175;28;20400;-81
2022/02/22 05:07:46;;;;;;;;;;;7.60;99.90;;;;;;4998492;28;19930;-83
2022/02/22 05:10:15;;;;;;;;;;;7.80;99.90;;;;;;5007784;28;19948;-81
2022/02/22 05:12:42;;;;;;;;;;;7.60;99.90;;;;;;4990876;28;19949;-81
2022/02/22 05:15:14;;;;;;;;;;;7.50;99.90;;;;;;5019082;28;19925;-81
2022/02/22 05:17:42;;;;;;;;;;;7.60;99.90;;;;;;5027061;28;19932;-81
2022/02/22 05:20:11;;;;;;;;;;;7.60;99.90;;;;;;5032708;28;19936;-83
2022/02/22 05:22:43;;;;;;;;;;;7.60;99.90;;;;;;5027634;28;19936;-88
2022/02/22 05:25:13;;;;;;;;;;;7.60;99.90;;;;;;5028545;28;19925;-80
2022/02/22 05:27:41;;;;;;;;;;;7.60;99.90;;;;;;5011337;28;19941;-80
2022/02/22 05:30:10;;;;;;;;;;;8.70;99.90;;;;;;5027635;28;19929;-81
2022/02/22 05:32:41;;;;;;;;;;;7.80;99.90;;;;;;5029523;28;19925;-81
2022/02/22 05:35:11;;;;;;;;;;;7.00;99.90;;;;;;5029293;28;19925;-79
2022/02/22 05:37:40;;;;;;;;;;;7.80;99.90;;;;;;5027583;28;19926;-83
2022/02/22 05:40:10;;;;;;;;;;;8.00;99.90;;;;;;5026829;28;19949;-80
2022/02/22 05:42:38;;;;;;;;;;;7.90;99.90;;;;;;5008922;28;19926;-81
2022/02/22 05:45:07;;;;;;;;;;;7.90;99.90;;;;;;5027299;28;19932;-80
2022/02/22 05:47:35;;;;;;;;;;;8.10;99.90;;;;;;5023866;28;19930;-83
2022/02/22 05:50:08;;;;;;;;;;;8.20;99.90;;;;;;5009737;28;20618;-81
2022/02/22 05:52:36;;;;;;;;;;;8.20;99.90;;;;;;5009911;28;19925;-85
2022/02/22 05:55:05;;;;;;;;;;;6.90;99.90;;;;;;5028632;28;19930;-81
2022/02/22 05:57:38;;;;;;;;;;;8.20;99.90;;;;;;5027416;28;19929;-83
2022/02/22 06:00:07;;;;;;;;;;;8.20;99.90;;;;;;5028564;28;19944;-85
2022/02/22 06:02:37;;;;;;;;;;;8.20;99.90;;;;;;5029832;28;19929;-82
2022/02/22 06:05:07;;;;;;;;;;;8.30;99.90;;;;;;5027637;28;19929;-83
2022/02/22 06:07:37;;;;;;;;;;;8.30;99.90;;;;;;5039465;28;19913;-84
2022/02/22 06:10:05;;;;;;;;;;;8.20;99.90;;;;;;5030437;28;19931;-85
2022/02/22 06:12:34;;;;;;;;;;;8.50;99.90;;;;;;5014876;28;19925;-85
2022/02/22 06:15:04;;;;;;;;;;;8.40;99.90;;;;;;5013533;28;19988;-85
2022/02/22 06:17:41;;;;;;;;;;;8.50;99.90;;;;;;5030327;28;19929;-84
2022/02/22 06:20:17;;;;;;;;;;;8.40;99.90;;;;;;5003047;28;19926;-83
2022/02/22 06:22:46;;;;;;;;;;;8.50;99.90;;;;;;5025183;28;19935;-82
2022/02/22 06:25:15;;;;;;;;;;;8.70;99.90;;;;;;5035967;28;20113;-83
2022/02/22 06:27:53;;;;;;;;;;;8.50;99.90;;;;;;5027299;28;19933;-82
2022/02/22 06:30:29;;;;;;;;;;;8.60;99.90;;;;;;5026167;28;19932;-84
2022/02/22 06:32:58;;;;;;;;;;;8.70;99.90;;;;;;5026597;28;19925;-83
2022/02/22 06:35:29;;;;;;;;;;;8.60;99.90;;;;;;5026357;28;19936;-83
2022/02/22 06:38:00;;;;;;;;;;;8.60;99.90;;;;;;5030503;28;19929;-82
2022/02/22 06:40:36;;;;;;;;;;;8.70;99.90;;;;;;5029608;28;19936;-87
2022/02/22 06:43:06;;;;;;;;;;;8.70;99.90;;;;;;5045485;28;19925;-85
2022/02/22 06:45:36;;;;;;;;;;;8.70;99.90;;;;;;5030206;28;19935;-85
2022/02/22 06:48:04;;;;;;;;;;;8.90;99.90;;;;;;5047412;28;19929;-84
2022/02/22 06:50:34;;;;;;;;;;;8.70;99.90;;;;;;5029040;28;20387;-84
2022/02/22 06:53:05;;;;;;;;;;;8.90;99.90;;;;;;4998490;28;19926;-84
2022/02/22 06:55:39;;;;;;;;;;;8.80;99.90;;;;;;5045918;28;19933;-83
2022/02/22 06:58:10;;;;;;;;;;;8.70;99.90;;;;;;5019811;28;19931;-82
2022/02/22 07:00:48;;;;;;;;;;;9.00;99.90;;;;;;5040584;28;19927;-85
2022/02/22 07:03:17;;;;;;;;;;;8.90;99.90;;;;;;5010187;28;19931;-83
2022/02/22 07:05:46;;;;;;;;;;;8.90;99.90;;;;;;5044914;28;19926;-85
2022/02/22 07:08:14;;;;;;;;;;;8.90;99.90;;;;;;5003078;28;19931;-84
2022/02/22 07:10:45;;;;;;;;;;;8.90;99.90;;;;;;5027143;28;19925;-82
2022/02/22 07:13:14;;;;;;;;;;;9.30;99.90;;;;;;5052247;28;19925;-85
2022/02/22 07:15:43;;;;;;;;;;;8.90;99.90;;;;;;5043909;28;19953;-83
2022/02/22 07:18:13;;;;;;;;;;;9.00;99.90;;;;;;5013912;28;19929;-86
2022/02/22 07:20:50;;;;;;;;;;;9.00;99.90;;;;;;5022481;28;19925;-87
2022/02/22 07:23:37;;;;;;;;;;;9.00;99.90;;;;;;5051634;28;19925;-86
2022/02/22 07:27:12;;;;;;;;;;;8.90;99.90;;;;;;5011163;28;20306;-87
2022/02/22 07:30:19;;;;;;;;;;;;;;;;;;;;;
2022/02/22 07:33:39;;;;;;;;;;;;;;;;;;;;;
2022/02/22 07:37:31;;;;;;;;;;;7.80;99.90;;;;;;4946540;29;19935;-87
2022/02/22 07:40:28;;;;;;;;;;;9.10;99.90;;;;;;4922023;29;19931;-85
2022/02/22 07:43:06;;;;;;;;;;;7.40;99.90;;;;;;4929590;29;19930;-85
2022/02/22 07:45:38;;;;;;;;;;;8.60;99.90;;;;;;4952926;29;19930;-88
2022/02/22 07:48:12;;;;;;;;;;;9.20;99.90;;;;;;4951858;29;19927;-82
2022/02/22 07:50:42;;;;;;;;;;;9.20;99.90;;;;;;4973224;28;19925;-84
2022/02/22 07:53:10;;;;;;;;;;;9.40;99.90;;;;;;5044453;28;19925;-80
2022/02/22 07:55:39;;;;;;;;;;;9.50;99.90;;;;;;5012429;28;19929;-80
2022/02/22 07:58:06;;;;;;;;;;;9.40;99.90;;;;;;5045916;28;19932;-84
2022/02/22 08:00:35;;;;;;;;;;;9.50;99.90;;;;;;5027648;28;19929;-84
2022/02/22 08:03:02;;;;;;;;;;;9.80;99.90;;;;;;5028253;28;19978;-88
2022/02/22 08:05:30;;;;;;;;;;;9.50;99.90;;;;;;5012234;28;19929;-85
2022/02/22 08:08:00;;;;;;;;;;;9.60;99.90;;;;;;5029493;28;20251;-82
2022/02/22 08:10:31;;;;;;;;;;;9.90;99.90;;;;;;5017309;28;19936;-84
2022/02/22 08:13:01;;;;;;;;;;;9.70;99.90;;;;;;5026780;28;19936;-83
2022/02/22 08:15:30;;;;;;;;;;;9.70;99.90;;;;;;5046552;28;19940;-85
2022/02/22 08:18:00;;;;;;;;;;;10.00;99.90;;;;;;5048254;28;20270;-82
2022/02/22 08:20:43;;;;;;;;;;;9.90;99.90;;;;;;5031166;28;20094;-81
2022/02/22 08:23:39;;;;;;;;;;;11.60;99.90;;;;;;5031486;28;19968;-86
2022/02/22 08:26:14;;;;;;;;;;;9.00;99.90;;;;;;5028475;28;19940;-85
2022/02/22 08:28:43;;;;;;;;;;;8.80;99.90;;;;;;5015704;28;19932;-87
2022/02/22 08:31:11;;;;;;;;;;;10.10;99.90;;;;;;5012061;28;20286;-83
2022/02/22 08:33:40;;;;;;;;;;;11.30;99.90;;;;;;5028413;28;19935;-83
2022/02/22 08:36:12;;;;;;;;;;;10.10;99.90;;;;;;5009363;28;20310;-83
2022/02/22 08:38:40;;;;;;;;;;;10.10;99.90;;;;;;5027219;28;19929;-82
2022/02/22 08:41:16;;;;;;;;;;;10.10;99.90;;;;;;5008286;28;19926;-83
2022/02/22 08:43:44;;;;;;;;;;;10.10;99.90;;;;;;5043464;28;20103;-83
2022/02/22 08:46:18;;;;;;;;;;;10.40;99.90;;;;;;5045977;28;19925;-83
2022/02/22 08:48:51;;;;;;;;;;;10.20;99.90;;;;;;5039619;28;19927;-83
2022/02/22 08:51:46;;;;;;;;;;;10.50;99.90;;;;;;5024589;28;20393;-82
2022/02/22 08:54:14;;;;;;;;;;;10.40;99.90;;;;;;5018363;28;19930;-84
2022/02/22 08:56:47;;;;;;;;;;;10.50;99.90;;;;;;5038164;28;19925;-84
2022/02/22 08:59:18;;;;;;;;;;;11.90;99.90;;;;;;5009808;28;19925;-84
2022/02/22 09:01:48;;;;;;;;;;;10.70;99.90;;;;;;5020648;28;19989;-84
2022/02/22 09:04:16;;;;;;;;;;;10.70;99.90;;;;;;5041238;28;19925;-83
2022/02/22 09:06:44;;;;;;;;;;;10.70;99.90;;;;;;5026639;28;19933;-83
2022/02/22 09:09:13;;;;;;;;;;;10.70;99.90;;;;;;5042293;28;20282;-84
2022/02/22 09:11:40;;;;;;;;;;;10.90;99.90;;;;;;5009995;28;19932;-84
2022/02/22 09:14:11;;;;;;;;;;;11.00;99.90;;;;;;5011094;28;19939;-83
2022/02/22 09:16:39;;;;;;;;;;;11.00;99.90;;;;;;5007120;28;19925;-83
2022/02/22 09:19:07;;;;;;;;;;;11.00;99.90;;;;;;5027873;28;19925;-83
2022/02/22 09:21:35;;;;;;;;;;;11.10;99.90;;;;;;5045347;28;19932;-86
2022/02/22 09:24:10;;;;;;;;;;;9.70;99.90;;;;;;5022174;28;19929;-82
2022/02/22 09:26:45;;;;;;;;;;;11.40;99.90;;;;;;5008495;28;20508;-85
2022/02/22 09:29:13;;;;;;;;;;;11.20;99.90;;;;;;5026556;28;19925;-82
2022/02/22 09:31:45;;;;;;;;;;;11.20;99.90;;;;;;5020522;28;20264;-82
2022/02/22 09:34:13;;;;;;;;;;;11.40;99.90;;;;;;5044156;28;19935;-81
2022/02/22 09:36:42;;;;;;;;;;;11.50;99.90;;;;;;5010541;28;19929;-84
2022/02/22 09:39:11;;;;;;;;;;;11.30;99.90;;;;;;5026436;28;19944;-84
2022/02/22 09:41:42;;;;;;;;;;;11.40;99.90;;;;;;5026256;28;19929;-80
2022/02/22 09:44:12;;;;;;;;;;;11.40;99.90;;;;;;5024823;28;19940;-86
2022/02/22 09:46:40;;;;;;;;;;;10.80;99.90;;;;;;5043119;28;19925;-82
2022/02/22 09:49:10;;;;;;;;;;;11.50;99.90;;;;;;5018573;28;19932;-82
2022/02/22 09:51:39;;;;;;;;;;;11.60;99.90;;;;;;5041080;28;19939;-83
2022/02/22 09:54:07;;;;;;;;;;;11.70;99.90;;;;;;5026224;28;19936;-81
2022/02/22 09:56:45;;;;;;;;;;;13.40;99.90;;;;;;5043547;28;19929;-82
2022/02/22 09:59:21;;;;;;;;;;;11.90;99.90;;;;;;5026967;28;19936;-82
2022/02/22 10:01:54;;;;;;;;;;;11.90;99.90;;;;;;5036775;28;19935;-84
2022/02/22 10:04:44;;;;;;;;;;;12.00;99.90;;;;;;5037922;28;19926;-84
2022/02/22 10:07:18;;;;;;;;;;;12.10;99.90;;;;;;5029622;28;19932;-82
2022/02/22 10:10:07;;;;;;;;;;;12.10;99.90;;;;;;5007438;28;19935;-84
2022/02/22 10:12:41;;;;;;;;;;;12.50;99.90;;;;;;5024884;28;19956;-84
2022/02/22 10:15:15;;;;;;;;;;;12.20;99.90;;;;;;5024611;28;19932;-88
2022/02/22 10:17:52;;;;;;;;;;;12.40;99.90;;;;;;5025593;28;19932;-84
2022/02/22 10:20:51;;;;;;;;;;;12.30;99.90;;;;;;5000509;28;19925;-87
2022/02/22 10:24:07;;;;;;;;;;;;;;;;;;;;;
2022/02/22 10:27:34;;;;;;;;;;;12.70;99.90;;;;;;5008860;28;19929;-85
2022/02/22 10:30:12;;;;;;;;;;;;;;;;;;;;;
2022/02/22 10:33:21;;;;;;;;;;;11.80;99.90;;;;;;5024976;28;20449;-86
2022/02/22 10:36:17;;;;;;;;;;;13.00;99.90;;;;;;5021249;28;19936;-85
2022/02/22 10:39:09;;;;;;;;;;;12.90;99.90;;;;;;5010855;28;19929;-85
2022/02/22 10:41:56;;;;;;;;;;;12.80;99.90;;;;;;5041306;28;19940;-85
2022/02/22 10:45:31;;;;;;;;;;;12.80;99.90;;;;;;4939903;28;19945;-84
2022/02/22 10:49:00;;;;;;;;;;;11.80;99.90;;;;;;4951954;28;19941;-85
2022/02/22 10:52:19;;;;;;;;;;;13.20;99.90;;;;;;4903853;29;19931;-87
2022/02/22 10:55:42;;;;;;;;;;;11.70;99.90;;;;;;4904049;29;19940;-85
2022/02/22 10:58:30;;;;;;;;;;;13.30;99.90;;;;;;4904705;29;19935;-83
2022/02/22 11:01:32;;;;;;;;;;;13.30;99.90;;;;;;4891317;29;19927;-87
2022/02/22 11:04:19;;;;;;;;;;;;;;;;;;;;;
2022/02/22 11:07:26;;;;;;;;;;;12.50;99.90;;;;;;4913590;29;20455;-86
2022/02/22 11:10:46;;;;;;;;;;;14.50;99.90;;;;;;4972543;28;19927;-84
2022/02/22 11:13:38;;;;;;;;;;;13.40;99.90;;;;;;4968752;28;20709;-86
2022/02/22 11:17:12;;;;;;;;;;;13.70;99.90;;;;;;5019203;28;19929;-84
2022/02/22 11:24:40;;;;;;;;;;;;;;;;;;;;;
2022/02/22 11:28:01;;;;;;;;;;;13.70;99.90;;;;;;4972269;28;19936;-87
2022/02/22 11:30:57;;;;;;;;;;;13.90;99.90;;;;;;4986805;28;19926;-86
2022/02/22 11:33:53;;;;;;;;;;;13.70;99.90;;;;;;4953937;28;20069;-86
2022/02/22 11:37:13;;;;;;;;;;;13.60;99.90;;;;;;4980035;28;19927;-87
2022/02/22 11:40:30;;;;;;;;;;;13.60;99.90;;;;;;4968370;28;19930;-84
2022/02/22 11:43:56;;;;;;;;;;;13.80;99.90;;;;;;4971222;28;19936;-86
2022/02/22 11:46:50;;;;;;;;;;;13.60;99.90;;;;;;4954406;28;19934;-86
2022/02/22 11:53:16;;;;;;;;;;;13.70;99.90;;;;;;5026357;28;19929;-85
2022/02/22 11:55:59;;;;;;;;;;;14.40;99.90;;;;;;5017196;28;19930;-85
2022/02/22 11:59:50;;;;;;;;;;;13.70;99.90;;;;;;5018453;28;19959;-84
2022/02/22 12:06:01;;;;;;;;;;;;;;;;;;;;;
2022/02/22 12:09:43;;;;;;;;;;;;;;;;;;;;;
2022/02/22 12:13:39;;;;;;;;;;;14.10;99.90;;;;;;4895162;29;19935;-87
2022/02/22 12:21:06;;;;;;;;;;;14.10;99.90;;;;;;4869989;29;19937;-86
2022/02/22 12:25:09;;;;;;;;;;;;;;;;;;;;;
2022/02/22 12:28:55;;;;;;;;;;;13.90;99.90;;;;;;4881008;29;19932;-87
2022/02/22 12:32:36;;;;;;;;;;;14.60;99.90;;;;;;4890516;29;19928;-86
2022/02/22 12:35:32;;;;;;;;;;;;;;;;;;;;;
2022/02/22 12:43:10;;;;;;;;;;;12.20;99.90;;;;;;4814972;29;19932;-85
2022/02/22 12:51:16;;;;;;;;;;;14.60;99.90;;;;;;4813524;29;19924;-86
2022/02/22 12:54:15;;;;;;;;;;;12.90;99.90;;;;;;4811017;29;19972;-86
2022/02/22 13:01:10;;;;;;;;;;;13.30;99.90;;;;;;4895387;29;19927;-85
2022/02/22 13:13:09;;;;;;;;;;;12.40;99.90;;;;;;4855557;29;19932;-86
2022/02/22 13:16:12;;;;;;;;;;;12.30;99.90;;;;;;4897777;29;19970;-84
2022/02/22 13:19:19;;;;;;;;;;;13.30;99.90;;;;;;4916592;29;19927;-87
2022/02/22 13:26:41;;;;;;;;;;;12.00;99.90;;;;;;4880444;29;19938;-85
2022/02/22 13:33:31;;;;;;;;;;;11.50;99.90;;;;;;4852258;29;19939;-87
2022/02/22 14:03:50;;;;;;;;;;;13.30;99.90;;;;;;4969888;28;19924;-87
2022/02/22 14:06:50;;;;;;;;;;;12.30;99.90;;;;;;4978270;28;19934;-88
2022/02/22 14:17:02;;;;;;;;;;;12.60;99.90;;;;;;4736786;23;10000419;-91
2022/02/22 14:19:35;;;;;;;;;;;12.70;99.90;;;;;;4866214;29;19928;-92
2022/02/22 14:22:03;;;;;;;;;;;12.70;99.90;;;;;;4884643;29;19928;-89
2022/02/22 14:24:31;;;;;;;;;;;12.90;99.90;;;;;;4869602;29;19935;-90
2022/02/22 14:26:59;;;;;;;;;;;12.80;99.90;;;;;;4854229;29;19963;-94
2022/02/22 14:29:29;;;;;;;;;;;12.90;99.90;;;;;;4886862;29;19936;-93
2022/02/22 14:31:57;;;;;;;;;;;13.00;99.90;;;;;;4870400;29;19938;-90
2022/02/22 14:34:25;;;;;;;;;;;13.10;99.90;;;;;;4886136;29;19932;-91
2022/02/22 14:37:27;;;;;;;;;;;13.30;99.90;;;;;;4883680;29;19928;-89
2022/02/22 14:39:59;;;;;;;;;;;13.40;99.90;;;;;;4880246;29;19928;-92
2022/02/22 14:42:26;;;;;;;;;;;13.60;99.90;;;;;;4886933;29;19935;-91
2022/02/22 14:44:57;;;;;;;;;;;12.70;99.90;;;;;;4875883;29;19935;-91
2022/02/22 14:47:44;;;;;;;;;;;13.60;99.90;;;;;;4891410;29;19935;-91
2022/02/22 14:50:14;;;;;;;;;;;13.70;99.90;;;;;;4860317;29;19928;-91
2022/02/22 14:52:46;;;;;;;;;;;13.70;99.90;;;;;;4875237;29;19934;-91
2022/02/22 14:55:14;;;;;;;;;;;13.80;99.90;;;;;;4871770;29;19929;-90
2022/02/22 14:57:49;;;;;;;;;;;13.90;99.90;;;;;;4867835;29;19934;-92
2022/02/22 15:00:19;;;;;;;;;;;14.00;99.90;;;;;;4884336;29;19938;-90
2022/02/22 15:02:47;;;;;;;;;;;14.10;99.90;;;;;;4892161;29;19938;-90
2022/02/22 15:05:15;;;;;;;;;;;14.20;99.90;;;;;;4875427;29;20268;-90
2022/02/22 15:07:42;;;;;;;;;;;14.40;99.90;;;;;;4871493;29;19943;-91
2022/02/22 15:10:12;;;;;;;;;;;14.50;99.90;;;;;;4882191;29;19935;-89
2022/02/22 15:12:45;;;;;;;;;;;14.80;99.90;;;;;;4858238;29;19928;-89
2022/02/22 15:15:14;;;;;;;;;;;15.00;99.90;;;;;;4874733;29;19928;-91
2022/02/22 15:17:43;;;;;;;;;;;15.10;99.90;;;;;;4838205;29;19928;-88
2022/02/22 15:20:12;;;;;;;;;;;15.30;98.70;;;;;;4861488;29;19931;-91
2022/02/22 15:22:40;;;;;;;;;;;15.40;97.50;;;;;;4836653;29;19932;-88
2022/02/22 15:25:12;;;;;;;;;;;15.50;96.60;;;;;;4837490;29;19928;-92
2022/02/22 15:28:11;;;;;;;;;;;15.40;96.40;;;;;;4845585;29;19935;-91
2022/02/22 15:30:41;;;;;;;;;;;15.20;94.00;;;;;;4838354;29;19928;-88
2022/02/22 15:33:09;;;;;;;;;;;14.90;93.40;;;;;;4839770;29;19945;-88
2022/02/22 15:35:38;;;;;;;;;;;14.60;93.90;;;;;;4837097;29;19928;-88
2022/02/22 15:38:06;;;;;;;;;;;14.40;93.80;;;;;;4853871;29;19932;-89
2022/02/22 15:40:46;;;;;;;;;;;14.30;94.20;;;;;;4860502;29;19932;-87
2022/02/22 15:43:19;;;;;;;;;;;14.40;93.60;;;;;;4861458;29;19932;-86
2022/02/22 15:45:49;;;;;;;;;;;14.70;93.70;;;;;;4828519;29;19932;-89
2022/02/22 15:48:22;;;;;;;;;;;15.60;93.20;;;;;;4865502;29;19932;-89
2022/02/22 15:50:52;;;;;;;;;;;15.40;92.70;;;;;;4847043;29;19928;-88
2022/02/22 15:53:21;;;;;;;;;;;15.60;91.90;;;;;;4846049;29;20784;-88
2022/02/22 15:55:52;;;;;;;;;;;15.60;91.00;;;;;;4844882;29;19928;-89
2022/02/22 15:58:27;;;;;;;;;;;15.60;90.30;;;;;;4844456;29;19935;-87
2022/02/22 16:01:17;;;;;;;;;;;15.70;90.50;;;;;;4830654;29;22358;-90
2022/02/22 22:18:24;;;;;;;;;;;7.20;99.90;;;;;;4876412;29;21463;-85
2022/02/22 22:21:10;;;;;;;;;;;7.40;99.90;;;;;;4866233;29;19932;-85
2022/02/22 22:23:55;;;;;;;;;;;7.20;99.90;;;;;;4881018;29;19936;-87
2022/02/22 22:26:43;;;;;;;;;;;7.20;99.90;;;;;;4892884;29;19927;-83
2022/02/22 22:29:15;;;;;;;;;;;6.50;99.90;;;;;;4894135;29;19945;-86
2022/02/22 22:31:46;;;;;;;;;;;7.40;99.90;;;;;;4881992;29;19932;-85
2022/02/22 22:34:16;;;;;;;;;;;8.30;99.90;;;;;;4896404;29;19938;-84
2022/02/22 22:36:53;;;;;;;;;;;7.20;99.90;;;;;;4883402;29;19947;-89
2022/02/22 22:39:29;;;;;;;;;;;7.40;99.90;;;;;;4869701;29;19939;-84
2022/02/22 22:42:07;;;;;;;;;;;7.40;99.90;;;;;;4899287;29;20237;-83
2022/02/22 22:44:58;;;;;;;;;;;6.40;99.90;;;;;;4881765;29;19927;-84
2022/02/22 22:51:06;;;;;;;;;;;7.20;99.90;;;;;;4890912;29;19938;-85
2022/02/22 22:53:47;;;;;;;;;;;7.10;99.90;;;;;;4862917;29;20399;-85
2022/02/22 22:56:23;;;;;;;;;;;7.20;99.90;;;;;;4876529;29;19915;-84
2022/02/22 22:59:24;;;;;;;;;;;7.20;99.90;;;;;;4884298;29;20407;-83
2022/02/22 23:02:04;;;;;;;;;;;5.60;99.90;;;;;;4876562;29;19944;-82
2022/02/22 23:04:48;;;;;;;;;;;7.40;99.90;;;;;;4880517;29;19934;-84
2022/02/22 23:14:09;;;;;;;;;;;7.20;99.90;;;;;;4879550;29;19936;-83
2022/02/22 23:16:45;;;;;;;;;;;7.10;99.90;;;;;;4899212;29;19957;-84
2022/02/22 23:19:21;;;;;;;;;;;6.80;99.90;;;;;;4870099;29;20397;-84
2022/02/22 23:22:11;;;;;;;;;;;7.10;99.90;;;;;;4898077;29;19932;-87
2022/02/22 23:24:58;;;;;;;;;;;7.00;99.90;;;;;;4901687;29;19934;-88
2022/02/22 23:27:34;;;;;;;;;;;7.80;99.90;;;;;;4897937;29;19927;-84
2022/02/22 23:30:08;;;;;;;;;;;7.00;99.90;;;;;;4875197;29;19927;-84
2022/02/22 23:33:04;;;;;;;;;;;;;;;;;;;;;
2022/02/22 23:35:38;;;;;;;;;;;6.80;99.90;;;;;;4897651;29;19933;-87
2022/02/22 23:38:06;;;;;;;;;;;6.90;99.90;;;;;;4885512;29;20377;-82
2022/02/22 23:40:43;;;;;;;;;;;6.70;99.90;;;;;;4883332;29;19932;-85
2022/02/22 23:43:19;;;;;;;;;;;6.80;99.90;;;;;;4893618;29;19927;-85
2022/02/22 23:46:12;;;;;;;;;;;5.90;99.90;;;;;;4866925;29;19916;-87
2022/02/22 23:49:15;;;;;;;;;;;6.90;99.90;;;;;;4886295;29;20740;-85
2022/02/22 23:51:45;;;;;;;;;;;6.90;99.90;;;;;;4896313;29;19931;-85
2022/02/22 23:54:17;;;;;;;;;;;6.80;99.90;;;;;;4895877;29;19927;-86
2022/02/22 23:56:50;;;;;;;;;;;5.60;99.90;;;;;;4881254;29;19938;-84
2022/02/22 23:59:36;;;;;;;;;;;5.10;99.90;;;;;;4852254;29;19931;-88
